createdAt,value
2022-09-27T00:00:28.283Z,4.68
2022-09-27T00:01:12.902Z,4.95
2022-09-27T00:01:54.679Z,4.63
2022-09-27T00:02:36.434Z,6.05
2022-09-27T00:03:18.151Z,5.40
2022-09-27T00:04:00.516Z,7.03
2022-09-27T00:04:42.180Z,6.00
2022-09-27T00:05:23.949Z,5.03
2022-09-27T00:06:07.556Z,6.30
2022-09-27T00:06:49.285Z,7.40
2022-09-27T00:07:30.969Z,6.22
2022-09-27T00:08:12.626Z,8.00
2022-09-27T00:08:54.652Z,6.65
2022-09-27T00:09:36.755Z,6.88
2022-09-27T00:10:19.448Z,6.15
2022-09-27T00:11:03.246Z,5.22
2022-09-27T00:11:45.572Z,6.28
2022-09-27T00:12:27.290Z,8.20
2022-09-27T00:13:08.958Z,8.15
2022-09-27T00:13:51.373Z,7.38
2022-09-27T00:14:33.065Z,6.25
2022-09-27T00:15:15.246Z,6.60
2022-09-27T00:15:58.892Z,6.50
2022-09-27T00:16:41.899Z,6.82
2022-09-27T00:17:23.601Z,6.70
2022-09-27T00:18:05.327Z,7.65
2022-09-27T00:18:47.012Z,6.20
2022-09-27T00:19:28.828Z,7.05
2022-09-27T00:20:10.614Z,7.80
2022-09-27T00:20:52.479Z,9.02
2022-09-27T00:21:34.666Z,7.55
2022-09-27T00:22:16.359Z,7.20
2022-09-27T00:22:58.030Z,7.43
2022-09-27T00:23:40.250Z,8.10
2022-09-27T00:24:23.007Z,7.75
2022-09-27T00:25:07.282Z,5.70
2022-09-27T00:25:59.450Z,4.50
2022-09-27T00:26:41.514Z,6.70
2022-09-27T00:27:23.229Z,9.90
2022-09-27T00:28:04.903Z,8.60
2022-09-27T00:28:47.057Z,7.43
2022-09-27T00:29:28.865Z,8.02
2022-09-27T00:30:11.564Z,7.30
2022-09-27T00:30:54.103Z,6.03
2022-09-27T00:31:36.598Z,6.97
2022-09-27T00:32:18.454Z,6.30
2022-09-27T00:33:00.338Z,7.35
2022-09-27T00:33:42.041Z,7.82
2022-09-27T00:34:25.387Z,9.43
2022-09-27T00:35:07.351Z,8.13
2022-09-27T00:35:49.050Z,6.57
2022-09-27T00:36:32.058Z,6.10
2022-09-27T00:37:13.781Z,6.70
2022-09-27T00:37:55.460Z,7.20
2022-09-27T00:38:37.159Z,6.70
2022-09-27T00:39:19.409Z,6.10
2022-09-27T00:40:01.265Z,6.78
2022-09-27T00:40:43.508Z,7.00
2022-09-27T00:41:30.932Z,6.93
2022-09-27T00:42:13.318Z,8.13
2022-09-27T00:42:55.004Z,7.43
2022-09-27T00:43:50.190Z,9.32
2022-09-27T00:44:33.686Z,6.20
2022-09-27T00:45:17.924Z,8.30
2022-09-27T00:46:03.922Z,5.68
2022-09-27T00:46:50.483Z,7.20
2022-09-27T00:47:48.181Z,7.70
2022-09-27T00:48:32.840Z,6.10
2022-09-27T00:49:35.591Z,6.28
2022-09-27T00:50:26.087Z,6.72
2022-09-27T00:51:09.710Z,8.88
2022-09-27T00:52:02.378Z,8.50
2022-09-27T00:52:55.086Z,8.00
2022-09-27T00:53:49.238Z,8.70
2022-09-27T00:54:34.852Z,6.60
2022-09-27T00:55:20.449Z,5.90
2022-09-27T00:56:08.435Z,5.93
2022-09-27T00:56:50.935Z,6.75
2022-09-27T00:57:33.000Z,8.90
2022-09-27T00:58:18.905Z,8.30
2022-09-27T00:59:11.658Z,8.45
2022-09-27T01:00:01.114Z,8.20
2022-09-27T01:00:45.940Z,6.28
2022-09-27T01:01:30.406Z,5.82
2022-09-27T01:02:12.729Z,6.25
2022-09-27T01:02:56.038Z,6.28
2022-09-27T01:04:00.082Z,5.35
2022-09-27T01:04:44.677Z,5.63
2022-09-27T01:05:29.220Z,6.38
2022-09-27T01:06:11.734Z,10.00
2022-09-27T01:06:53.481Z,8.32
2022-09-27T01:07:35.186Z,4.50
2022-09-27T01:08:16.856Z,5.25
2022-09-27T01:08:58.539Z,7.90
2022-09-27T01:09:40.699Z,9.20
2022-09-27T01:10:25.412Z,6.10
2022-09-27T01:11:31.982Z,5.68
2022-09-27T01:12:29.950Z,5.65
2022-09-27T01:13:38.810Z,7.80
2022-09-27T01:14:57.090Z,6.35
2022-09-27T01:16:04.640Z,5.15
2022-09-27T01:17:40.805Z,4.78
2022-09-27T01:18:41.692Z,5.47
2022-09-27T01:19:55.602Z,4.60
2022-09-27T01:21:16.032Z,7.28
2022-09-27T01:22:14.433Z,4.53
2022-09-27T01:23:23.890Z,6.55
2022-09-27T01:24:52.129Z,6.45
2022-09-27T01:25:47.747Z,5.80
2022-09-27T01:27:01.961Z,3.88
2022-09-27T01:27:58.670Z,5.47
2022-09-27T01:28:58.841Z,5.15
2022-09-27T01:30:15.839Z,4.68
2022-09-27T01:31:12.355Z,7.50
2022-09-27T01:32:10.027Z,5.03
2022-09-27T01:33:10.131Z,6.80
2022-09-27T01:34:07.443Z,7.60
2022-09-27T01:35:15.325Z,8.50
2022-09-27T01:36:05.961Z,5.90
2022-09-27T01:37:07.084Z,6.97
2022-09-27T01:38:14.700Z,6.10
2022-09-27T01:39:14.126Z,6.47
2022-09-27T01:40:24.686Z,6.03
2022-09-27T01:41:22.401Z,6.57
2022-09-27T01:42:22.520Z,7.47
2022-09-27T01:43:18.221Z,4.95
2022-09-27T01:44:20.798Z,5.05
2022-09-27T01:45:24.381Z,6.55
2022-09-27T01:46:12.975Z,6.40
2022-09-27T01:47:04.855Z,5.65
2022-09-27T01:47:55.171Z,6.35
2022-09-27T01:48:47.121Z,7.50
2022-09-27T01:49:39.501Z,6.43
2022-09-27T01:50:35.258Z,6.32
2022-09-27T01:51:45.619Z,6.88
2022-09-27T01:52:35.050Z,7.55
2022-09-27T01:53:44.324Z,7.25
2022-09-27T01:54:35.163Z,10.73
2022-09-27T01:55:21.110Z,8.20
2022-09-27T01:56:06.675Z,5.90
2022-09-27T01:56:52.479Z,8.20
2022-09-27T01:57:40.630Z,7.43
2022-09-27T01:58:38.673Z,7.35
2022-09-27T01:59:45.653Z,9.95
2022-09-27T02:00:28.118Z,8.50
2022-09-27T02:01:12.330Z,9.35
2022-09-27T02:01:59.616Z,9.70
2022-09-27T02:02:48.701Z,10.10
2022-09-27T02:03:37.486Z,9.50
2022-09-27T02:04:24.241Z,7.25
2022-09-27T02:05:09.538Z,9.40
2022-09-27T02:05:57.285Z,7.35
2022-09-27T02:06:43.245Z,8.52
2022-09-27T02:07:37.839Z,7.18
2022-09-27T02:08:41.748Z,6.78
2022-09-27T02:09:33.375Z,7.25
2022-09-27T02:10:29.039Z,7.55
2022-09-27T02:11:13.490Z,10.35
2022-09-27T02:12:01.010Z,9.52
2022-09-27T02:13:17.923Z,10.95
2022-09-27T02:14:16.023Z,7.43
2022-09-27T02:15:26.346Z,11.00
2022-09-27T02:16:30.180Z,6.75
2022-09-27T02:17:42.456Z,6.30
2022-09-27T02:18:32.695Z,5.35
2022-09-27T02:19:45.926Z,8.90
2022-09-27T02:20:35.631Z,7.20
2022-09-27T02:21:21.009Z,8.30
2022-09-27T02:22:33.374Z,7.65
2022-09-27T02:23:43.763Z,11.90
2022-09-27T02:24:37.492Z,9.07
2022-09-27T02:25:34.934Z,8.95
2022-09-27T02:26:24.905Z,6.57
2022-09-27T02:27:17.027Z,7.75
2022-09-27T02:28:11.310Z,7.95
2022-09-27T02:29:05.622Z,6.95
2022-09-27T02:29:53.571Z,5.88
2022-09-27T02:30:36.456Z,6.95
2022-09-27T02:31:18.366Z,6.43
2022-09-27T02:32:00.191Z,5.80
2022-09-27T02:32:42.888Z,5.20
2022-09-27T02:33:30.354Z,8.13
2022-09-27T02:34:21.257Z,7.82
2022-09-27T02:35:09.246Z,6.80
2022-09-27T02:35:50.976Z,6.30
2022-09-27T02:36:32.900Z,7.53
2022-09-27T02:37:14.838Z,8.05
2022-09-27T02:37:57.374Z,6.97
2022-09-27T02:38:39.903Z,7.47
2022-09-27T02:39:22.033Z,9.07
2022-09-27T02:40:04.771Z,6.55
2022-09-27T02:40:47.869Z,8.20
2022-09-27T02:41:29.571Z,8.52
2022-09-27T02:42:11.395Z,4.45
2022-09-27T02:42:53.117Z,4.50
2022-09-27T02:43:34.931Z,6.10
2022-09-27T02:44:17.981Z,6.70
2022-09-27T02:44:59.810Z,7.22
2022-09-27T02:46:19.177Z,6.85
2022-09-27T02:47:18.982Z,6.47
2022-09-27T02:48:16.743Z,5.03
2022-09-27T02:49:10.677Z,6.30
2022-09-27T02:50:14.523Z,6.28
2022-09-27T02:51:11.081Z,4.47
2022-09-27T02:51:58.746Z,4.00
2022-09-27T02:53:09.819Z,5.30
2022-09-27T02:54:12.159Z,4.65
2022-09-27T02:54:56.550Z,7.47
2022-09-27T02:55:44.211Z,6.43
2022-09-27T02:56:40.188Z,5.95
2022-09-27T02:58:01.421Z,5.05
2022-09-27T02:58:57.958Z,5.40
2022-09-27T03:00:01.861Z,6.00
2022-09-27T03:01:23.072Z,7.72
2022-09-27T03:02:58.617Z,4.80
2022-09-27T03:03:51.807Z,4.40
2022-09-27T03:04:45.846Z,6.13
2022-09-27T03:05:32.012Z,6.10
2022-09-27T03:06:17.638Z,5.10
2022-09-27T03:07:01.471Z,4.70
2022-09-27T03:07:43.574Z,5.85
2022-09-27T03:08:25.425Z,6.43
2022-09-27T03:09:18.404Z,6.57
2022-09-27T03:10:00.098Z,3.72
2022-09-27T03:10:42.103Z,4.70
2022-09-27T03:11:23.905Z,6.20
2022-09-27T03:12:05.598Z,5.85
2022-09-27T03:12:47.741Z,3.55
2022-09-27T03:13:29.770Z,4.38
2022-09-27T03:14:11.516Z,6.25
2022-09-27T03:14:58.603Z,6.00
2022-09-27T03:15:40.289Z,6.80
2022-09-27T03:16:21.978Z,4.85
2022-09-27T03:17:03.730Z,7.38
2022-09-27T03:17:45.482Z,7.47
2022-09-27T03:18:27.318Z,4.68
2022-09-27T03:19:09.956Z,3.55
2022-09-27T03:19:51.949Z,6.30
2022-09-27T03:20:34.481Z,5.22
2022-09-27T03:21:16.146Z,4.60
2022-09-27T03:21:57.877Z,4.40
2022-09-27T03:22:40.699Z,4.80
2022-09-27T03:23:22.412Z,5.10
2022-09-27T03:24:04.253Z,4.90
2022-09-27T03:24:45.955Z,4.60
2022-09-27T03:25:27.666Z,5.10
2022-09-27T03:26:12.838Z,5.65
2022-09-27T03:26:55.032Z,5.43
2022-09-27T03:27:36.707Z,4.00
2022-09-27T03:28:19.342Z,3.47
2022-09-27T03:29:01.376Z,4.07
2022-09-27T03:29:43.053Z,4.70
2022-09-27T03:30:24.737Z,3.33
2022-09-27T03:31:06.642Z,4.00
2022-09-27T03:31:48.440Z,4.20
2022-09-27T03:32:31.596Z,4.78
2022-09-27T03:33:13.743Z,5.88
2022-09-27T03:33:55.485Z,6.90
2022-09-27T03:34:37.162Z,4.30
2022-09-27T03:35:18.825Z,3.50
2022-09-27T03:36:00.662Z,4.50
2022-09-27T03:36:43.202Z,3.15
2022-09-27T03:37:26.603Z,3.20
2022-09-27T03:38:08.293Z,3.83
2022-09-27T03:38:50.217Z,3.35
2022-09-27T03:39:33.112Z,4.25
2022-09-27T03:40:15.254Z,5.25
2022-09-27T03:40:57.047Z,4.35
2022-09-27T03:41:38.829Z,4.95
2022-09-27T03:42:20.582Z,7.50
2022-09-27T03:43:02.527Z,9.40
2022-09-27T03:43:44.232Z,7.95
2022-09-27T03:44:25.947Z,7.28
2022-09-27T03:45:08.022Z,3.63
2022-09-27T03:45:50.187Z,8.00
2022-09-27T03:46:31.968Z,8.20
2022-09-27T03:47:13.704Z,4.10
2022-09-27T03:47:55.368Z,5.50
2022-09-27T03:48:37.067Z,6.18
2022-09-27T03:49:18.987Z,5.43
2022-09-27T03:50:00.641Z,5.05
2022-09-27T03:50:42.532Z,7.30
2022-09-27T03:51:24.342Z,4.97
2022-09-27T03:52:06.050Z,6.70
2022-09-27T03:52:47.739Z,5.50
2022-09-27T03:53:29.418Z,4.82
2022-09-27T03:54:11.343Z,5.47
2022-09-27T03:54:53.004Z,6.35
2022-09-27T03:55:35.401Z,4.53
2022-09-27T03:56:17.715Z,5.03
2022-09-27T03:56:59.627Z,5.25
2022-09-27T03:57:45.639Z,6.18
2022-09-27T03:58:27.327Z,6.40
2022-09-27T03:59:09.081Z,5.88
2022-09-27T03:59:51.156Z,4.72
2022-09-27T04:00:32.931Z,6.28
2022-09-27T04:01:14.844Z,5.88
2022-09-27T04:01:56.683Z,7.47
2022-09-27T04:02:38.567Z,4.43
2022-09-27T04:03:20.319Z,4.80
2022-09-27T04:04:01.998Z,7.50
2022-09-27T04:04:44.342Z,8.25
2022-09-27T04:05:27.594Z,6.70
2022-09-27T04:06:09.405Z,5.18
2022-09-27T04:06:51.118Z,5.85
2022-09-27T04:07:32.836Z,3.63
2022-09-27T04:08:14.677Z,4.70
2022-09-27T04:08:56.532Z,5.93
2022-09-27T04:09:42.564Z,4.90
2022-09-27T04:10:26.370Z,4.10
2022-09-27T04:11:08.068Z,6.57
2022-09-27T04:11:49.735Z,7.43
2022-09-27T04:12:32.182Z,6.80
2022-09-27T04:13:14.141Z,6.35
2022-09-27T04:13:56.242Z,5.00
2022-09-27T04:14:37.988Z,5.07
2022-09-27T04:15:19.795Z,5.63
2022-09-27T04:16:02.945Z,4.45
2022-09-27T04:16:44.762Z,5.38
2022-09-27T04:17:27.475Z,4.82
2022-09-27T04:18:09.512Z,4.65
2022-09-27T04:18:51.302Z,4.20
2022-09-27T04:19:33.002Z,3.70
2022-09-27T04:20:14.806Z,4.40
2022-09-27T04:20:56.519Z,4.63
2022-09-27T04:21:38.294Z,4.18
2022-09-27T04:22:20.255Z,4.55
2022-09-27T04:23:02.372Z,3.78
2022-09-27T04:23:44.094Z,4.13
2022-09-27T04:24:25.772Z,6.75
2022-09-27T04:25:09.417Z,5.00
2022-09-27T04:25:51.303Z,3.95
2022-09-27T04:26:33.029Z,4.00
2022-09-27T04:27:14.714Z,4.10
2022-09-27T04:27:56.430Z,5.70
2022-09-27T04:28:38.491Z,4.30
2022-09-27T04:29:20.290Z,5.90
2022-09-27T04:30:02.228Z,6.80
2022-09-27T04:30:45.196Z,4.60
2022-09-27T04:31:27.027Z,3.53
2022-09-27T04:32:08.924Z,5.88
2022-09-27T04:32:50.639Z,5.10
2022-09-27T04:33:32.341Z,4.18
2022-09-27T04:34:14.039Z,4.70
2022-09-27T04:35:14.256Z,3.72
2022-09-27T04:36:14.308Z,5.40
2022-09-27T04:36:55.974Z,4.50
2022-09-27T04:37:38.276Z,5.65
2022-09-27T04:38:23.215Z,5.32
2022-09-27T04:39:07.022Z,5.55
2022-09-27T04:39:49.291Z,9.88
2022-09-27T04:40:33.575Z,5.53
2022-09-27T04:41:15.466Z,4.72
2022-09-27T04:41:57.179Z,5.22
2022-09-27T04:42:38.921Z,5.78
2022-09-27T04:43:20.634Z,8.10
2022-09-27T04:44:02.793Z,6.65
2022-09-27T04:44:44.697Z,6.82
2022-09-27T04:45:26.364Z,9.93
2022-09-27T04:46:08.107Z,8.50
2022-09-27T04:46:49.861Z,6.00
2022-09-27T04:47:31.983Z,6.97
2022-09-27T04:48:13.719Z,6.20
2022-09-27T04:48:55.430Z,6.65
2022-09-27T04:49:38.786Z,5.60
2022-09-27T04:50:20.508Z,5.03
2022-09-27T04:51:02.907Z,7.93
2022-09-27T04:51:44.598Z,8.35
2022-09-27T04:52:26.313Z,8.30
2022-09-27T04:53:08.126Z,8.95
2022-09-27T04:53:49.843Z,8.20
2022-09-27T04:54:31.796Z,9.18
2022-09-27T04:55:13.474Z,6.70
2022-09-27T04:55:55.859Z,7.82
2022-09-27T04:56:37.574Z,6.45
2022-09-27T04:57:19.270Z,6.13
2022-09-27T04:58:01.610Z,7.65
2022-09-27T04:58:43.419Z,8.82
2022-09-27T04:59:25.215Z,9.15
2022-09-27T05:00:07.921Z,10.00
2022-09-27T05:00:52.238Z,6.90
2022-09-27T05:01:34.051Z,9.57
2022-09-27T05:02:15.841Z,8.52
2022-09-27T05:02:57.716Z,6.57
2022-09-27T05:03:39.562Z,5.85
2022-09-27T05:04:21.852Z,6.53
2022-09-27T05:05:03.867Z,8.15
2022-09-27T05:05:45.908Z,8.98
2022-09-27T05:06:27.677Z,9.57
2022-09-27T05:07:09.440Z,9.18
2022-09-27T05:07:51.165Z,6.57
2022-09-27T05:08:33.011Z,8.63
2022-09-27T05:09:14.894Z,7.30
2022-09-27T05:09:56.938Z,7.35
2022-09-27T05:10:38.762Z,5.97
2022-09-27T05:11:20.803Z,6.32
2022-09-27T05:12:02.736Z,7.60
2022-09-27T05:12:44.917Z,9.43
2022-09-27T05:13:26.813Z,9.15
2022-09-27T05:14:08.508Z,8.70
2022-09-27T05:14:50.213Z,6.97
2022-09-27T05:15:32.049Z,6.72
2022-09-27T05:16:13.865Z,5.95
2022-09-27T05:16:55.652Z,5.90
2022-09-27T05:17:37.492Z,5.63
2022-09-27T05:18:19.238Z,8.67
2022-09-27T05:19:00.973Z,6.70
2022-09-27T05:19:42.686Z,6.03
2022-09-27T05:20:25.591Z,6.72
2022-09-27T05:21:07.301Z,6.78
2022-09-27T05:21:48.999Z,5.13
2022-09-27T05:22:30.745Z,7.00
2022-09-27T05:23:12.761Z,7.00
2022-09-27T05:23:54.502Z,6.43
2022-09-27T05:24:38.327Z,8.43
2022-09-27T05:25:20.138Z,5.35
2022-09-27T05:26:06.036Z,6.80
2022-09-27T05:26:47.881Z,6.07
2022-09-27T05:27:31.026Z,5.70
2022-09-27T05:28:12.729Z,5.63
2022-09-27T05:28:54.465Z,6.43
2022-09-27T05:29:36.198Z,6.60
2022-09-27T05:30:18.416Z,7.63
2022-09-27T05:31:00.150Z,7.10
2022-09-27T05:31:41.852Z,7.85
2022-09-27T05:32:23.594Z,7.72
2022-09-27T05:33:05.347Z,6.05
2022-09-27T05:33:46.998Z,7.68
2022-09-27T05:34:28.712Z,6.25
2022-09-27T05:35:10.724Z,7.55
2022-09-27T05:35:56.554Z,7.20
2022-09-27T05:36:38.733Z,6.80
2022-09-27T05:37:21.123Z,6.63
2022-09-27T05:38:02.958Z,6.57
2022-09-27T05:38:44.658Z,7.55
2022-09-27T05:39:26.423Z,6.70
2022-09-27T05:40:17.228Z,7.17
2022-09-27T05:41:10.565Z,9.65
2022-09-27T05:41:54.657Z,7.00
2022-09-27T05:42:40.076Z,6.25
2022-09-27T05:43:21.761Z,5.90
2022-09-27T05:44:03.443Z,7.72
2022-09-27T05:44:48.437Z,7.75
2022-09-27T05:45:30.109Z,6.15
2022-09-27T05:46:12.198Z,6.80
2022-09-27T05:46:53.891Z,5.45
2022-09-27T05:47:35.555Z,5.70
2022-09-27T05:48:17.269Z,7.10
2022-09-27T05:48:59.271Z,9.57
2022-09-27T05:49:41.496Z,11.30
2022-09-27T05:50:24.938Z,6.13
2022-09-27T05:51:07.005Z,10.32
2022-09-27T05:51:48.870Z,8.10
2022-09-27T05:52:30.542Z,7.00
2022-09-27T05:53:13.365Z,5.20
2022-09-27T05:53:55.192Z,6.80
2022-09-27T05:54:36.959Z,7.95
2022-09-27T05:55:18.895Z,5.50
2022-09-27T05:56:04.805Z,4.60
2022-09-27T05:56:46.490Z,5.50
2022-09-27T05:57:28.185Z,9.68
2022-09-27T05:58:11.315Z,6.53
2022-09-27T05:58:53.562Z,8.05
2022-09-27T05:59:35.287Z,6.50
2022-09-27T06:00:17.861Z,6.93
2022-09-27T06:00:59.522Z,7.78
2022-09-27T06:01:41.301Z,7.50
2022-09-27T06:02:23.360Z,8.60
2022-09-27T06:03:06.221Z,9.70
2022-09-27T06:03:48.001Z,7.90
2022-09-27T06:04:29.683Z,5.63
2022-09-27T06:05:11.340Z,6.05
2022-09-27T06:05:53.099Z,5.18
2022-09-27T06:06:37.199Z,5.97
2022-09-27T06:07:18.888Z,5.30
2022-09-27T06:08:03.714Z,5.60
2022-09-27T06:08:45.518Z,6.47
2022-09-27T06:09:28.121Z,12.05
2022-09-27T06:10:09.834Z,11.10
2022-09-27T06:11:00.218Z,5.82
2022-09-27T06:11:45.413Z,10.40
2022-09-27T06:12:27.440Z,7.38
2022-09-27T06:13:14.375Z,5.97
2022-09-27T06:13:56.041Z,5.90
2022-09-27T06:14:38.392Z,6.40
2022-09-27T06:15:20.067Z,5.03
2022-09-27T06:16:02.443Z,6.40
2022-09-27T06:16:45.602Z,9.30
2022-09-27T06:17:27.369Z,10.02
2022-09-27T06:18:11.938Z,6.43
2022-09-27T06:18:53.935Z,5.18
2022-09-27T06:19:35.705Z,5.25
2022-09-27T06:20:18.435Z,6.90
2022-09-27T06:21:01.507Z,6.10
2022-09-27T06:21:43.200Z,5.93
2022-09-27T06:22:24.854Z,6.57
2022-09-27T06:23:19.403Z,8.80
2022-09-27T06:24:01.647Z,5.95
2022-09-27T06:24:43.335Z,6.18
2022-09-27T06:25:26.848Z,7.57
2022-09-27T06:26:09.914Z,5.95
2022-09-27T06:26:51.600Z,6.88
2022-09-27T06:27:33.307Z,5.80
2022-09-27T06:28:16.007Z,6.82
2022-09-27T06:28:57.750Z,9.80
2022-09-27T06:29:39.433Z,7.35
2022-09-27T06:30:21.093Z,8.35
2022-09-27T06:31:05.476Z,8.68
2022-09-27T06:31:47.221Z,10.32
2022-09-27T06:32:28.925Z,5.75
2022-09-27T06:33:13.490Z,6.07
2022-09-27T06:33:55.178Z,6.05
2022-09-27T06:34:37.092Z,4.75
2022-09-27T06:35:18.777Z,3.80
2022-09-27T06:36:05.371Z,4.75
2022-09-27T06:36:51.511Z,6.25
2022-09-27T06:37:34.651Z,7.32
2022-09-27T06:38:18.192Z,6.57
2022-09-27T06:39:01.689Z,5.95
2022-09-27T06:39:43.392Z,4.63
2022-09-27T06:40:26.299Z,6.50
2022-09-27T06:41:09.634Z,6.50
2022-09-27T06:41:57.716Z,5.05
2022-09-27T06:42:40.313Z,5.63
2022-09-27T06:43:22.076Z,7.25
2022-09-27T06:44:03.937Z,5.75
2022-09-27T06:44:50.425Z,5.93
2022-09-27T06:45:33.051Z,5.80
2022-09-27T06:46:15.844Z,5.80
2022-09-27T06:46:57.557Z,5.10
2022-09-27T06:47:39.704Z,3.88
2022-09-27T06:48:21.404Z,5.38
2022-09-27T06:49:03.070Z,5.90
2022-09-27T06:49:44.743Z,6.45
2022-09-27T06:50:26.454Z,5.72
2022-09-27T06:51:08.199Z,5.90
2022-09-27T06:51:50.255Z,6.47
2022-09-27T06:52:33.089Z,4.45
2022-09-27T06:53:16.757Z,5.43
2022-09-27T06:53:58.434Z,5.85
2022-09-27T06:54:40.130Z,5.75
2022-09-27T06:55:22.050Z,5.15
2022-09-27T06:56:03.833Z,4.90
2022-09-27T06:56:48.124Z,4.60
2022-09-27T06:57:48.815Z,4.80
2022-09-27T06:58:48.922Z,5.72
2022-09-27T06:59:49.121Z,3.70
2022-09-27T07:00:31.336Z,5.10
2022-09-27T07:01:13.743Z,5.70
2022-09-27T07:01:55.542Z,4.68
2022-09-27T07:02:38.227Z,4.28
2022-09-27T07:03:22.958Z,8.13
2022-09-27T07:04:05.959Z,5.72
2022-09-27T07:04:47.651Z,6.97
2022-09-27T07:05:30.161Z,6.35
2022-09-27T07:06:17.898Z,3.47
2022-09-27T07:06:59.571Z,4.75
2022-09-27T07:07:41.734Z,5.43
2022-09-27T07:08:26.267Z,4.15
2022-09-27T07:09:08.011Z,7.10
2022-09-27T07:09:50.092Z,4.60
2022-09-27T07:10:35.715Z,4.95
2022-09-27T07:11:18.267Z,4.28
2022-09-27T07:12:00.198Z,3.55
2022-09-27T07:12:41.884Z,4.93
2022-09-27T07:13:23.696Z,5.75
2022-09-27T07:14:06.907Z,3.22
2022-09-27T07:14:49.706Z,3.90
2022-09-27T07:15:32.404Z,5.47
2022-09-27T07:16:15.027Z,5.10
2022-09-27T07:16:56.805Z,3.90
2022-09-27T07:17:38.515Z,6.75
2022-09-27T07:18:20.567Z,5.68
2022-09-27T07:19:02.495Z,4.30
2022-09-27T07:19:44.155Z,3.75
2022-09-27T07:20:26.960Z,4.35
2022-09-27T07:21:09.405Z,3.70
2022-09-27T07:21:51.876Z,3.88
2022-09-27T07:22:39.179Z,4.22
2022-09-27T07:23:21.063Z,3.40
2022-09-27T07:24:03.011Z,2.75
2022-09-27T07:24:44.697Z,5.40
2022-09-27T07:25:26.599Z,4.63
2022-09-27T07:26:10.379Z,3.08
2022-09-27T07:26:52.095Z,3.40
2022-09-27T07:27:38.206Z,5.80
2022-09-27T07:28:22.033Z,5.53
2022-09-27T07:29:04.171Z,5.40
2022-09-27T07:29:45.850Z,3.70
2022-09-27T07:30:27.858Z,3.20
2022-09-27T07:31:10.095Z,2.80
2022-09-27T07:31:52.437Z,3.45
2022-09-27T07:32:36.706Z,3.90
2022-09-27T07:33:18.377Z,4.97
2022-09-27T07:34:00.151Z,4.75
2022-09-27T07:34:42.074Z,3.40
2022-09-27T07:35:23.902Z,3.65
2022-09-27T07:36:10.322Z,4.83
2022-09-27T07:36:52.340Z,3.53
2022-09-27T07:37:38.063Z,2.85
2022-09-27T07:38:19.924Z,3.00
2022-09-27T07:39:01.762Z,3.35
2022-09-27T07:39:44.506Z,2.58
2022-09-27T07:40:26.645Z,5.32
2022-09-27T07:41:10.973Z,5.15
2022-09-27T07:41:52.990Z,4.88
2022-09-27T07:42:35.417Z,4.55
2022-09-27T07:43:17.706Z,2.80
2022-09-27T07:43:59.702Z,2.90
2022-09-27T07:44:41.383Z,2.60
2022-09-27T07:45:23.370Z,4.03
2022-09-27T07:46:05.170Z,4.65
2022-09-27T07:46:47.119Z,5.30
2022-09-27T07:47:28.925Z,5.60
2022-09-27T07:48:14.185Z,5.32
2022-09-27T07:48:56.073Z,5.70
2022-09-27T07:49:37.755Z,4.90
2022-09-27T07:50:20.049Z,3.00
2022-09-27T07:51:01.743Z,2.80
2022-09-27T07:51:43.431Z,3.05
2022-09-27T07:52:25.139Z,7.97
2022-09-27T07:53:06.868Z,9.38
2022-09-27T07:53:48.622Z,4.40
2022-09-27T07:54:30.403Z,2.70
2022-09-27T07:55:13.967Z,3.67
2022-09-27T07:55:55.786Z,3.50
2022-09-27T07:56:37.449Z,3.53
2022-09-27T07:57:22.671Z,3.50
2022-09-27T07:58:07.167Z,3.50
2022-09-27T07:58:48.907Z,4.80
2022-09-27T07:59:30.674Z,7.80
2022-09-27T08:00:19.674Z,5.18
2022-09-27T08:01:02.569Z,2.22
2022-09-27T08:01:46.378Z,3.95
2022-09-27T08:02:28.130Z,3.50
2022-09-27T08:03:17.656Z,2.92
2022-09-27T08:03:59.358Z,5.20
2022-09-27T08:04:43.544Z,3.58
2022-09-27T08:05:25.514Z,4.10
2022-09-27T08:06:07.445Z,2.80
2022-09-27T08:06:49.255Z,2.35
2022-09-27T08:07:32.847Z,2.50
2022-09-27T08:08:16.357Z,2.72
2022-09-27T08:09:01.674Z,2.30
2022-09-27T08:09:43.393Z,2.85
2022-09-27T08:10:31.243Z,4.55
2022-09-27T08:11:15.419Z,5.30
2022-09-27T08:11:58.295Z,3.30
2022-09-27T08:12:40.023Z,3.70
2022-09-27T08:13:21.699Z,3.40
2022-09-27T08:14:04.368Z,3.40
2022-09-27T08:14:48.415Z,3.50
2022-09-27T08:15:38.976Z,4.07
2022-09-27T08:16:22.019Z,5.78
2022-09-27T08:17:04.118Z,5.70
2022-09-27T08:17:45.826Z,4.60
2022-09-27T08:18:27.527Z,3.15
2022-09-27T08:19:09.325Z,2.90
2022-09-27T08:19:51.083Z,2.50
2022-09-27T08:20:32.841Z,2.78
2022-09-27T08:21:14.524Z,3.00
2022-09-27T08:21:58.914Z,3.40
2022-09-27T08:22:42.602Z,2.47
2022-09-27T08:23:24.618Z,2.20
2022-09-27T08:24:06.559Z,2.60
2022-09-27T08:24:48.639Z,4.20
2022-09-27T08:25:30.996Z,3.40
2022-09-27T08:26:12.713Z,2.38
2022-09-27T08:26:54.499Z,2.60
2022-09-27T08:27:36.234Z,3.35
2022-09-27T08:28:17.954Z,2.90
2022-09-27T08:28:59.669Z,3.10
2022-09-27T08:29:41.984Z,2.72
2022-09-27T08:30:24.849Z,2.50
2022-09-27T08:31:06.667Z,2.25
2022-09-27T08:31:51.423Z,3.10
2022-09-27T08:32:33.828Z,3.45
2022-09-27T08:33:15.526Z,4.90
2022-09-27T08:33:58.043Z,5.80
2022-09-27T08:34:39.810Z,3.90
2022-09-27T08:35:22.320Z,4.15
2022-09-27T08:36:04.224Z,3.30
2022-09-27T08:36:46.007Z,3.10
2022-09-27T08:37:27.709Z,2.92
2022-09-27T08:38:11.298Z,2.75
2022-09-27T08:38:57.641Z,4.07
2022-09-27T08:39:42.613Z,3.13
2022-09-27T08:40:43.653Z,3.35
2022-09-27T08:41:41.692Z,3.00
2022-09-27T08:42:32.706Z,5.00
2022-09-27T08:43:29.781Z,5.90
2022-09-27T08:44:18.463Z,2.47
2022-09-27T08:45:28.895Z,4.90
2022-09-27T08:46:19.513Z,3.35
2022-09-27T08:47:29.553Z,3.20
2022-09-27T08:48:12.238Z,3.42
2022-09-27T08:49:06.977Z,3.72
2022-09-27T08:49:57.418Z,2.53
2022-09-27T08:50:43.945Z,5.60
2022-09-27T08:51:30.384Z,4.75
2022-09-27T08:52:21.695Z,3.30
2022-09-27T08:53:07.326Z,3.97
2022-09-27T08:54:01.660Z,4.43
2022-09-27T08:54:45.328Z,4.38
2022-09-27T08:55:40.737Z,3.75
2022-09-27T08:56:24.071Z,3.60
2022-09-27T08:57:12.614Z,3.55
2022-09-27T08:57:57.863Z,3.05
2022-09-27T08:58:48.541Z,4.65
2022-09-27T08:59:36.036Z,4.03
2022-09-27T09:00:17.965Z,3.50
2022-09-27T09:01:03.328Z,2.70
2022-09-27T09:01:45.170Z,3.15
2022-09-27T09:02:27.481Z,4.60
2022-09-27T09:03:19.628Z,6.63
2022-09-27T09:04:04.264Z,3.97
2022-09-27T09:04:49.266Z,3.10
2022-09-27T09:05:34.723Z,4.70
2022-09-27T09:06:36.982Z,6.93
2022-09-27T09:07:33.949Z,7.00
2022-09-27T09:08:37.449Z,3.55
2022-09-27T09:09:39.429Z,4.00
2022-09-27T09:11:13.629Z,3.40
2022-09-27T09:12:26.665Z,4.28
2022-09-27T09:13:30.016Z,3.90
2022-09-27T09:14:29.799Z,3.55
2022-09-27T09:15:54.628Z,3.20
2022-09-27T09:17:01.016Z,4.22
2022-09-27T09:17:52.902Z,3.40
2022-09-27T09:18:49.579Z,5.72
2022-09-27T09:19:52.334Z,3.50
2022-09-27T09:20:43.416Z,4.80
2022-09-27T09:21:39.929Z,4.15
2022-09-27T09:22:59.446Z,3.42
2022-09-27T09:24:08.108Z,2.60
2022-09-27T09:25:15.390Z,3.60
2022-09-27T09:26:09.670Z,3.17
2022-09-27T09:26:51.306Z,4.40
2022-09-27T09:27:38.733Z,4.13
2022-09-27T09:28:38.591Z,4.55
2022-09-27T09:29:54.050Z,4.38
2022-09-27T09:30:57.563Z,5.80
2022-09-27T09:31:53.783Z,3.80
2022-09-27T09:32:55.207Z,5.10
2022-09-27T09:33:41.644Z,4.10
2022-09-27T09:34:34.886Z,3.60
2022-09-27T09:35:23.443Z,3.25
2022-09-27T09:36:29.123Z,3.55
2022-09-27T09:37:40.846Z,3.47
2022-09-27T09:38:29.525Z,3.75
2022-09-27T09:39:34.716Z,3.80
2022-09-27T09:40:42.597Z,3.90
2022-09-27T09:42:07.331Z,4.13
2022-09-27T09:43:10.074Z,5.13
2022-09-27T09:44:04.915Z,4.20
2022-09-27T09:44:55.600Z,3.20
2022-09-27T09:45:42.882Z,5.60
2022-09-27T09:46:41.179Z,4.80
2022-09-27T09:47:47.250Z,3.47
2022-09-27T09:48:51.987Z,4.40
2022-09-27T09:49:43.269Z,4.10
2022-09-27T09:50:28.495Z,4.22
2022-09-27T09:51:17.701Z,4.47
2022-09-27T09:52:12.621Z,5.38
2022-09-27T09:53:22.214Z,3.90
2022-09-27T09:54:43.366Z,4.32
2022-09-27T09:55:29.706Z,3.38
2022-09-27T09:56:24.646Z,4.10
2022-09-27T09:57:15.347Z,4.68
2022-09-27T09:58:05.740Z,4.40
2022-09-27T09:59:02.454Z,4.68
2022-09-27T09:59:54.374Z,4.15
2022-09-27T10:00:38.125Z,4.00
2022-09-27T10:01:33.610Z,7.07
2022-09-27T10:02:20.193Z,3.70
2022-09-27T10:03:03.560Z,3.40
2022-09-27T10:03:46.555Z,3.72
2022-09-27T10:04:29.088Z,3.00
2022-09-27T10:05:19.064Z,4.22
2022-09-27T10:06:00.901Z,5.70
2022-09-27T10:06:42.607Z,2.88
2022-09-27T10:07:25.151Z,3.20
2022-09-27T10:08:12.411Z,3.63
2022-09-27T10:08:54.812Z,5.00
2022-09-27T10:09:36.626Z,5.25
2022-09-27T10:10:20.562Z,3.20
2022-09-27T10:11:02.316Z,4.00
2022-09-27T10:11:45.987Z,5.80
2022-09-27T10:12:28.961Z,4.13
2022-09-27T10:13:17.221Z,4.20
2022-09-27T10:13:59.015Z,3.50
2022-09-27T10:14:42.187Z,3.20
2022-09-27T10:15:26.924Z,4.10
2022-09-27T10:16:12.754Z,4.53
2022-09-27T10:17:04.985Z,3.50
2022-09-27T10:17:52.166Z,3.17
2022-09-27T10:18:36.687Z,4.20
2022-09-27T10:19:26.846Z,4.50